Time;durP1;ratioP1;P1;durP2;ratioP2;P2;SDS_P1;SDS_P2;PMS_P1;PMS_P2;Temp;Humidity;BMP_temperature;BMP_pressure;BME280_temperature;BME280_humidity;BME280_pressure;Samples;Min_cycle;Max_cycle;Signal;HPM_P1;HPM_P2
2021/09/25 00:00:36;;;;;;;;;12.75;12.75;;;;;19.36;60.11;101106.50;2074125;28;47331;-52
2021/09/25 00:01:36;;;;;;;;;21.00;18.80;;;;;19.35;60.27;101106.59;2067284;28;48050;-48
2021/09/25 00:02:37;;;;;;;;;17.50;16.25;;;;;19.35;60.55;101110.16;2078155;28;46802;-49
2021/09/25 00:03:37;;;;;;;;;18.75;18.75;;;;;19.34;60.54;101108.41;2074468;28;45416;-53
2021/09/25 00:04:38;;;;;;;;;19.75;19.75;;;;;19.34;60.36;101108.41;2074753;28;47292;-51
2021/09/25 00:05:39;;;;;;;;;23.75;21.75;;;;;19.34;59.98;101118.31;2074576;28;47226;-50
2021/09/25 00:06:40;;;;;;;;;17.60;16.20;;;;;19.32;60.20;101112.13;2073994;28;47301;-52
2021/09/25 00:07:40;;;;;;;;;20.75;19.50;;;;;19.31;60.20;101108.56;2073777;28;48197;-50
2021/09/25 00:08:41;;;;;;;;;18.00;17.00;;;;;19.30;60.46;101108.63;2074790;28;48242;-49
2021/09/25 00:09:42;;;;;;;;;17.75;17.25;;;;;19.29;60.32;101112.28;2074427;28;47805;-48
2021/09/25 00:10:44;;;;;;;;;20.00;20.00;;;;;19.28;60.56;101107.84;2074641;28;47519;-50
2021/09/25 00:11:45;;;;;;;;;15.40;15.20;;;;;19.27;60.41;101108.78;2073863;28;46265;-51
2021/09/25 00:12:45;;;;;;;;;30.75;29.00;;;;;19.26;60.60;101110.63;2064271;28;48273;-51
2021/09/25 00:13:46;;;;;;;;;48.25;41.50;;;;;19.25;60.79;101111.56;2076805;28;48118;-50
2021/09/25 00:14:47;;;;;;;;;58.75;47.50;;;;;19.25;60.57;101103.50;2074246;28;45295;-48
2021/09/25 00:15:47;;;;;;;;;53.50;43.25;;;;;19.25;60.80;101108.00;2073924;28;47214;-49
2021/09/25 00:16:48;;;;;;;;;38.25;32.75;;;;;19.23;60.82;101100.03;2074781;28;47559;-48
2021/09/25 00:17:49;;;;;;;;;24.75;24.00;;;;;19.23;60.62;101105.41;2074255;28;48171;-51
2021/09/25 00:18:49;;;;;;;;;19.40;19.20;;;;;19.22;60.74;101103.66;2074030;28;46740;-50
2021/09/25 00:19:50;;;;;;;;;17.00;17.00;;;;;19.22;60.22;101106.34;2066228;28;48228;-51
2021/09/25 00:20:50;;;;;;;;;20.00;20.00;;;;;19.21;60.65;101104.63;2075675;28;48405;-51
2021/09/25 00:21:51;;;;;;;;;18.50;18.25;;;;;19.21;60.84;101104.63;2075254;28;47326;-52
2021/09/25 00:22:51;;;;;;;;;18.25;18.25;;;;;19.20;60.52;101097.50;2079928;28;45325;-50
2021/09/25 00:23:53;;;;;;;;;16.75;16.75;;;;;19.18;60.60;101107.44;2078821;28;47265;-48
2021/09/25 00:24:53;;;;;;;;;16.40;16.40;;;;;19.19;60.89;101103.81;2076539;28;48831;-50
2021/09/25 00:25:54;;;;;;;;;17.75;17.75;;;;;19.17;60.50;101102.13;2075574;28;46957;-51
2021/09/25 00:26:54;;;;;;;;;19.25;19.25;;;;;19.16;60.93;101103.09;2076113;28;46865;-51
2021/09/25 00:27:55;;;;;;;;;18.50;15.50;;;;;19.14;60.99;101108.56;2075847;28;45321;-50
2021/09/25 00:28:55;;;;;;;;;13.75;13.75;;;;;19.14;60.55;101105.00;2067450;28;47662;-50
2021/09/25 00:29:56;;;;;;;;;17.00;15.00;;;;;19.13;60.93;101096.06;2058975;28;47221;-52
2021/09/25 00:30:56;;;;;;;;;19.00;15.50;;;;;19.12;60.76;101097.00;2072760;28;47225;-49
2021/09/25 00:31:57;;;;;;;;;17.25;17.25;;;;;19.11;60.83;101098.81;2075212;28;47221;-50
2021/09/25 00:32:58;;;;;;;;;18.50;17.50;;;;;19.13;60.80;101105.94;2067279;28;48199;-51
2021/09/25 00:33:58;;;;;;;;;18.00;18.00;;;;;19.11;60.77;101103.34;2075353;28;48037;-52
2021/09/25 00:34:59;;;;;;;;;19.75;17.50;;;;;19.10;61.10;101105.16;2075444;28;48266;-52
2021/09/25 00:36:00;;;;;;;;;20.50;17.75;;;;;19.10;60.87;101097.09;2067127;28;46872;-53
2021/09/25 00:37:01;;;;;;;;;18.40;16.80;;;;;19.10;61.00;101109.66;2075081;28;47192;-52
2021/09/25 00:38:01;;;;;;;;;16.50;16.50;;;;;19.10;61.13;101101.59;2075493;28;47205;-51
2021/09/25 00:39:03;;;;;;;;;23.00;20.75;;;;;19.10;61.05;101106.97;2067013;28;47780;-53
2021/09/25 00:40:06;;;;;;;;;16.20;16.20;;;;;19.10;60.81;101098.91;2067345;28;47278;-49
2021/09/25 00:41:07;;;;;;;;;18.40;18.00;;;;;19.09;60.80;101102.53;2063082;28;47516;-49
2021/09/25 00:42:08;;;;;;;;;17.80;15.20;;;;;19.08;60.90;101099.00;2073777;28;47272;-51
2021/09/25 00:43:08;;;;;;;;;21.00;18.50;;;;;19.08;61.21;101095.44;2081922;28;48553;-53
2021/09/25 00:44:09;;;;;;;;;20.25;20.25;;;;;19.07;61.14;101099.06;2075457;28;47078;-51
2021/09/25 00:45:10;;;;;;;;;20.75;19.00;;;;;19.06;61.07;101100.88;2074088;28;48358;-48
2021/09/25 00:46:14;;;;;;;;;18.40;17.40;;;;;19.06;61.40;101100.03;2072321;28;48104;-51
2021/09/25 00:47:15;;;;;;;;;17.00;17.00;;;;;19.04;61.19;101100.06;2075838;28;47324;-52
2021/09/25 00:48:16;;;;;;;;;17.50;16.75;;;;;19.04;60.90;101108.13;2075863;28;45448;-52
2021/09/25 00:49:19;;;;;;;;;18.00;17.40;;;;;19.04;60.93;101107.28;2075240;28;48459;-51
2021/09/25 00:50:20;;;;;;;;;18.80;18.00;;;;;19.03;61.31;101111.78;2082390;28;47398;-52
2021/09/25 00:51:20;;;;;;;;;18.75;17.00;;;;;19.03;61.02;101105.53;2078499;28;46181;-50
2021/09/25 00:52:21;;;;;;;;;17.75;16.50;;;;;19.02;60.93;101104.66;2076032;28;45444;-52
2021/09/25 00:53:21;;;;;;;;;19.00;18.00;;;;;19.00;61.07;101106.56;2075052;28;47185;-53
2021/09/25 00:54:22;;;;;;;;;21.75;20.00;;;;;19.01;61.49;101108.31;2075264;28;45724;-53
2021/09/25 00:55:24;;;;;;;;;20.75;19.50;;;;;19.00;61.04;101106.56;2073378;28;47187;-51
2021/09/25 00:56:25;;;;;;;;;20.40;20.40;;;;;19.00;61.27;101109.25;2070306;28;47544;-48
2021/09/25 00:57:26;;;;;;;;;19.00;16.50;;;;;19.00;61.40;101105.69;2075094;28;46936;-50
2021/09/25 00:58:26;;;;;;;;;23.00;20.00;;;;;19.02;61.29;101109.16;2075326;28;47174;-50
2021/09/25 00:59:27;;;;;;;;;16.00;15.50;;;;;19.01;61.17;101108.31;2080774;28;48144;-49
2021/09/25 01:00:29;;;;;;;;;20.25;18.25;;;;;19.01;61.52;101110.13;2083583;28;46837;-48
2021/09/25 01:01:29;;;;;;;;;18.00;18.00;;;;;19.00;61.03;101111.06;2075041;28;45456;-48
2021/09/25 01:02:30;;;;;;;;;17.00;17.00;;;;;18.98;61.53;101104.91;2075251;28;47328;-51
2021/09/25 01:03:31;;;;;;;;;16.00;15.25;;;;;18.98;61.17;101104.91;2075704;28;47836;-49
2021/09/25 01:04:33;;;;;;;;;20.00;20.00;;;;;18.98;61.54;101104.91;2075560;28;47288;-51
2021/09/25 01:05:33;;;;;;;;;20.00;18.40;;;;;18.97;61.94;101104.03;2075685;28;47480;-50
2021/09/25 01:06:34;;;;;;;;;20.75;18.00;;;;;18.97;61.17;101103.16;2075786;28;48315;-50
2021/09/25 01:07:34;;;;;;;;;19.50;15.00;;;;;18.97;61.26;101100.47;2075573;28;47161;-49
2021/09/25 01:08:35;;;;;;;;;18.50;15.50;;;;;18.96;61.52;101107.69;2075697;28;47777;-51
2021/09/25 01:09:36;;;;;;;;;18.50;18.50;;;;;18.95;61.55;101103.25;2075452;28;46750;-47
2021/09/25 01:10:36;;;;;;;;;19.00;17.50;;;;;18.95;61.58;101102.38;2075641;28;47508;-52
2021/09/25 01:11:37;;;;;;;;;21.50;20.50;;;;;18.94;61.41;101097.94;2075541;28;47410;-52
2021/09/25 01:12:37;;;;;;;;;20.25;20.00;;;;;18.95;61.50;101105.06;2075486;28;47358;-50
2021/09/25 01:13:38;;;;;;;;;19.00;19.00;;;;;18.94;61.37;101095.25;2076609;28;48139;-52
2021/09/25 01:14:38;;;;;;;;;16.00;15.33;;;;;18.93;61.74;101102.47;2071453;28;47225;-52
2021/09/25 01:15:39;;;;;;;;;17.00;17.00;;;;;18.93;61.56;101099.78;2070837;28;47303;-48
2021/09/25 01:16:39;;;;;;;;;19.50;17.50;;;;;18.92;61.59;101099.81;2075215;28;48089;-47
2021/09/25 01:17:41;;;;;;;;;16.75;16.75;;;;;18.90;61.62;101096.34;2082083;28;48041;-51
2021/09/25 01:18:41;;;;;;;;;18.20;17.20;;;;;18.90;61.63;101094.53;2083105;28;47371;-51
2021/09/25 01:19:43;;;;;;;;;19.75;19.00;;;;;18.90;61.63;101096.34;2075027;28;47058;-49
2021/09/25 01:20:44;;;;;;;;;17.00;17.00;;;;;18.90;61.69;101093.66;2075192;28;47384;-48
2021/09/25 01:21:45;;;;;;;;;16.80;16.80;;;;;18.89;61.67;101095.47;2075433;28;46988;-50
2021/09/25 01:22:46;;;;;;;;;16.75;15.75;;;;;18.87;61.74;101091.13;2079127;28;47181;-49
2021/09/25 01:23:46;;;;;;;;;20.50;18.75;;;;;18.87;61.31;101093.81;2078486;28;47338;-47
2021/09/25 01:24:47;;;;;;;;;18.00;15.75;;;;;18.88;61.89;101095.56;2075268;28;47089;-50
2021/09/25 01:25:47;;;;;;;;;18.00;16.25;;;;;18.87;61.78;101092.00;2073832;28;47258;-51
2021/09/25 01:26:48;;;;;;;;;20.25;16.50;;;;;18.87;61.90;101085.75;2075065;28;47478;-48
2021/09/25 01:27:49;;;;;;;;;18.00;16.50;;;;;18.86;61.96;101089.38;2075053;28;46792;-48
2021/09/25 01:28:50;;;;;;;;;19.20;19.00;;;;;18.86;61.56;101092.06;2075101;28;47387;-52
2021/09/25 01:29:51;;;;;;;;;19.00;19.00;;;;;18.86;61.65;101089.38;2075295;28;45168;-50
2021/09/25 01:30:51;;;;;;;;;18.50;17.25;;;;;18.86;61.68;101089.38;2074618;28;47379;-49
2021/09/25 01:31:53;;;;;;;;;15.75;15.75;;;;;18.86;61.81;101087.56;2075089;28;47241;-48
2021/09/25 01:32:54;;;;;;;;;19.40;17.40;;;;;18.86;61.84;101084.00;2075673;28;47167;-50
2021/09/25 01:33:54;;;;;;;;;19.40;19.40;;;;;18.86;61.66;101084.88;2074974;28;47695;-48
2021/09/25 01:34:55;;;;;;;;;16.00;14.75;;;;;18.84;61.51;101080.53;2075121;28;48181;-50
2021/09/25 01:35:55;;;;;;;;;19.50;18.25;;;;;18.84;61.60;101086.78;2075046;28;47142;-50
2021/09/25 01:36:56;;;;;;;;;20.25;20.00;;;;;18.83;61.68;101085.03;2074944;28;47444;-50
2021/09/25 01:37:57;;;;;;;;;20.25;17.50;;;;;18.83;61.79;101082.34;2068350;28;47142;-51
2021/09/25 01:38:57;;;;;;;;;20.25;18.25;;;;;18.84;61.84;101081.41;2075111;28;45122;-51
2021/09/25 01:39:58;;;;;;;;;15.25;15.25;;;;;18.84;62.00;101084.09;2067068;28;45149;-52
2021/09/25 01:40:58;;;;;;;;;17.25;16.75;;;;;18.85;61.91;101082.28;2066637;28;47168;-52
2021/09/25 01:42:01;;;;;;;;;18.00;17.25;;;;;18.86;61.91;101067.88;2074948;28;47435;-52
2021/09/25 01:43:01;;;;;;;;;17.20;16.40;;;;;18.86;61.99;101081.31;2074880;28;47320;-53
2021/09/25 01:44:02;;;;;;;;;15.50;14.75;;;;;18.85;62.23;101076.88;2075916;28;48287;-50
2021/09/25 01:45:05;;;;;;;;;18.40;17.20;;;;;18.86;61.76;101078.63;2074983;28;47306;-52
2021/09/25 01:46:05;;;;;;;;;18.60;17.80;;;;;18.84;61.88;101081.41;2067146;28;48293;-47
2021/09/25 01:47:06;;;;;;;;;20.00;19.25;;;;;18.84;61.77;101078.72;2066635;28;46420;-48
2021/09/25 01:48:06;;;;;;;;;16.00;15.25;;;;;18.85;61.88;101076.88;2066783;28;47375;-48
2021/09/25 01:49:07;;;;;;;;;20.00;18.25;;;;;18.84;61.66;101072.47;2074806;28;46746;-48
2021/09/25 01:50:10;;;;;;;;;16.00;16.00;;;;;18.84;62.13;101073.34;2077686;28;46238;-49
2021/09/25 01:51:12;;;;;;;;;17.40;16.00;;;;;18.85;61.76;101079.59;2075648;28;45084;-52
2021/09/25 01:52:13;;;;;;;;;22.00;20.40;;;;;18.84;62.03;101081.41;2075328;28;47532;-47
2021/09/25 01:53:14;;;;;;;;;18.00;18.00;;;;;18.85;62.06;101076.88;2074647;28;47134;-49
2021/09/25 01:54:15;;;;;;;;;16.50;16.50;;;;;18.86;62.07;101075.94;2071081;28;48266;-49
2021/09/25 01:55:15;;;;;;;;;17.40;17.40;;;;;18.85;61.74;101061.63;2074316;28;47054;-51
2021/09/25 01:56:17;;;;;;;;;22.00;18.00;;;;;18.86;61.55;101066.06;2071396;28;46454;-47
2021/09/25 01:57:17;;;;;;;;;18.60;15.60;;;;;18.87;61.65;101066.91;2074291;28;47479;-52
2021/09/25 01:58:18;;;;;;;;;15.75;15.00;;;;;18.86;61.87;101074.13;2074214;28;45194;-49
2021/09/25 01:59:19;;;;;;;;;14.25;13.25;;;;;18.87;61.74;101069.59;2082992;28;47275;-48
2021/09/25 02:00:19;;;;;;;;;16.75;16.75;;;;;18.87;61.72;101078.53;2082922;28;47080;-49
2021/09/25 02:01:20;;;;;;;;;20.60;18.60;;;;;18.86;61.70;101066.06;2082889;28;46098;-52
2021/09/25 02:02:21;;;;;;;;;20.00;19.75;;;;;18.87;61.62;101061.53;2075554;28;47321;-53
2021/09/25 02:03:21;;;;;;;;;16.25;16.25;;;;;18.86;61.88;101063.38;2075279;28;48053;-50
2021/09/25 02:04:22;;;;;;;;;17.00;16.25;;;;;18.86;61.80;101065.19;2075578;28;47198;-48
2021/09/25 02:05:22;;;;;;;;;18.25;16.50;;;;;18.86;61.59;101068.75;2074841;28;45402;-50
2021/09/25 02:06:23;;;;;;;;;18.00;17.00;;;;;18.87;61.34;101061.53;2074838;28;46971;-52
2021/09/25 02:07:24;;;;;;;;;19.00;19.00;;;;;18.85;61.67;101060.75;2075226;28;47294;-51
2021/09/25 02:08:24;;;;;;;;;18.25;17.50;;;;;18.84;61.70;101059.88;2075241;28;47352;-49
2021/09/25 02:09:24;;;;;;;;;14.75;14.75;;;;;18.84;61.80;101062.56;2075458;28;48067;-47
2021/09/25 02:10:26;;;;;;;;;18.25;17.25;;;;;18.85;61.98;101052.69;2075270;28;47026;-48
2021/09/25 02:11:26;;;;;;;;;18.20;17.20;;;;;18.85;61.68;101050.00;2075375;28;45496;-49
2021/09/25 02:12:27;;;;;;;;;20.25;19.75;;;;;18.84;61.68;101050.94;2073541;28;47932;-48
2021/09/25 02:13:27;;;;;;;;;18.50;15.50;;;;;18.83;61.88;101051.91;2079033;28;47039;-48
2021/09/25 02:14:28;;;;;;;;;17.50;17.50;;;;;18.80;61.83;101043.03;2074662;28;48418;-48
2021/09/25 02:15:30;;;;;;;;;22.50;19.25;;;;;18.80;61.95;101039.44;2066482;28;47493;-49
2021/09/25 02:16:30;;;;;;;;;24.40;21.00;;;;;18.80;61.87;101043.03;2074757;28;47256;-48
2021/09/25 02:17:31;;;;;;;;;18.25;18.25;;;;;18.79;61.75;101041.28;2075331;28;48015;-50
2021/09/25 02:18:31;;;;;;;;;19.00;17.00;;;;;18.79;61.74;101043.09;2074606;28;48058;-50
2021/09/25 02:19:32;;;;;;;;;18.00;18.00;;;;;18.77;62.10;101053.94;2074636;28;46965;-50
2021/09/25 02:20:32;;;;;;;;;20.25;19.75;;;;;18.75;61.76;101039.69;2075708;28;47358;-49
2021/09/25 02:21:33;;;;;;;;;24.75;22.00;;;;;18.73;61.93;101046.97;2074493;28;45395;-47
2021/09/25 02:22:35;;;;;;;;;23.00;22.75;;;;;18.73;61.70;101046.97;2075772;28;47991;-48
2021/09/25 02:23:35;;;;;;;;;21.20;21.20;;;;;18.73;61.91;101051.47;2066052;28;46392;-49
2021/09/25 02:24:36;;;;;;;;;21.00;19.25;;;;;18.72;61.87;101047.06;2066597;28;48190;-49
2021/09/25 02:25:37;;;;;;;;;21.50;19.25;;;;;18.72;61.71;101052.44;2074055;28;46162;-48
2021/09/25 02:26:38;;;;;;;;;20.80;20.80;;;;;18.72;61.54;101056.00;2074810;28;48269;-48
2021/09/25 02:27:41;;;;;;;;;21.40;20.00;;;;;18.71;61.98;101050.69;2075105;28;47507;-47
2021/09/25 02:28:42;;;;;;;;;21.80;21.80;;;;;18.70;61.98;101055.22;2075463;28;48448;-48
2021/09/25 02:29:42;;;;;;;;;18.75;18.00;;;;;18.70;61.70;101052.50;2075176;28;47379;-50
2021/09/25 02:30:43;;;;;;;;;22.00;20.50;;;;;18.70;61.54;101057.03;2074950;28;47880;-49
2021/09/25 02:31:44;;;;;;;;;24.50;20.75;;;;;18.69;61.77;101058.84;2066558;28;47375;-47
2021/09/25 02:32:45;;;;;;;;;21.50;20.00;;;;;18.68;61.60;101053.53;2061764;28;46576;-50
2021/09/25 02:33:47;;;;;;;;;23.80;21.20;;;;;18.67;61.92;101055.34;2058122;28;46973;-46
2021/09/25 02:34:47;;;;;;;;;21.20;20.40;;;;;18.66;61.55;101053.59;2067690;28;44974;-50
2021/09/25 02:35:49;;;;;;;;;20.75;20.75;;;;;18.67;61.90;101059.84;2082672;28;47915;-47
2021/09/25 02:36:50;;;;;;;;;21.80;20.40;;;;;18.66;61.86;101047.34;2067324;28;47341;-49
2021/09/25 02:37:51;;;;;;;;;20.25;19.75;;;;;18.65;61.66;101050.97;2073562;28;47871;-50
2021/09/25 02:38:51;;;;;;;;;22.50;21.50;;;;;18.64;61.78;101050.13;2074217;28;48359;-51
2021/09/25 02:39:52;;;;;;;;;21.00;20.50;;;;;18.64;61.56;101049.25;2072200;28;48269;-47
2021/09/25 02:40:52;;;;;;;;;20.50;20.00;;;;;18.63;61.88;101048.34;2074560;28;46125;-49
2021/09/25 02:41:53;;;;;;;;;22.75;21.75;;;;;18.63;61.56;101048.34;2074685;28;45429;-50
2021/09/25 02:42:54;;;;;;;;;19.40;17.80;;;;;18.62;61.75;101048.44;2074886;28;47431;-52
2021/09/25 02:43:55;;;;;;;;;24.25;22.25;;;;;18.61;61.57;101046.69;2074902;28;47483;-50
2021/09/25 02:44:55;;;;;;;;;20.50;20.25;;;;;18.59;61.99;101046.78;2074653;28;47005;-48
2021/09/25 02:45:56;;;;;;;;;23.25;21.25;;;;;18.59;61.65;101052.13;2074321;28;47484;-50
2021/09/25 02:46:57;;;;;;;;;21.50;20.00;;;;;18.60;61.83;101053.00;2075419;28;46242;-49
2021/09/25 02:47:57;;;;;;;;;22.00;21.50;;;;;18.58;61.98;101045.03;2075068;28;47211;-50
2021/09/25 02:48:58;;;;;;;;;21.75;20.75;;;;;18.57;61.53;101051.34;2072212;28;47752;-52
2021/09/25 02:49:58;;;;;;;;;23.25;23.00;;;;;18.54;61.96;101044.28;2072153;28;47093;-50
2021/09/25 02:50:59;;;;;;;;;24.25;22.25;;;;;18.54;61.88;101048.78;2075555;28;45865;-51
2021/09/25 02:51:59;;;;;;;;;22.25;21.25;;;;;18.54;61.83;101043.41;2074196;28;47545;-51
2021/09/25 02:53:00;;;;;;;;;24.25;23.00;;;;;18.53;61.92;101045.22;2074408;28;47390;-49
2021/09/25 02:54:01;;;;;;;;;20.00;18.75;;;;;18.52;61.75;101032.75;2075123;28;47103;-47
2021/09/25 02:55:01;;;;;;;;;23.75;20.50;;;;;18.51;61.99;101038.19;2074909;28;48255;-50
2021/09/25 02:56:02;;;;;;;;;23.00;21.25;;;;;18.50;62.00;101039.16;2073647;28;47417;-50
2021/09/25 02:57:02;;;;;;;;;22.50;22.50;;;;;18.48;61.83;101039.22;2074958;28;48267;-48
2021/09/25 02:58:03;;;;;;;;;19.50;19.50;;;;;18.48;61.78;101044.59;2075376;28;47192;-51
2021/09/25 02:59:04;;;;;;;;;22.25;22.00;;;;;18.47;61.93;101037.50;2075066;28;47190;-49
2021/09/25 03:00:08;;;;;;;;;22.60;20.20;;;;;18.47;61.92;101034.81;2075312;28;45182;-51
2021/09/25 03:01:09;;;;;;;;;24.40;24.40;;;;;18.47;61.78;101036.63;2074926;28;48301;-49
2021/09/25 03:02:09;;;;;;;;;26.50;23.00;;;;;18.46;61.89;101035.75;2075484;28;48378;-50
2021/09/25 03:03:10;;;;;;;;;21.25;21.25;;;;;18.46;62.03;101041.13;2074822;28;47287;-50
2021/09/25 03:04:10;;;;;;;;;20.00;19.00;;;;;18.46;61.97;101042.94;2075371;28;47118;-50
2021/09/25 03:05:12;;;;;;;;;20.25;20.00;;;;;18.44;61.72;101036.78;2074174;28;47911;-51
2021/09/25 03:06:12;;;;;;;;;19.60;19.00;;;;;18.43;61.68;101032.34;2066483;28;47123;-49
2021/09/25 03:07:12;;;;;;;;;25.00;23.50;;;;;18.44;61.97;101039.47;2074354;28;47595;-51
2021/09/25 03:08:13;;;;;;;;;21.00;21.00;;;;;18.41;61.99;101035.09;2075017;28;47364;-52
2021/09/25 03:09:14;;;;;;;;;21.50;19.50;;;;;18.42;61.98;101034.16;2074835;28;47220;-51
2021/09/25 03:10:15;;;;;;;;;19.00;19.00;;;;;18.42;61.82;101033.28;2075265;28;47773;-49
2021/09/25 03:11:16;;;;;;;;;21.00;20.80;;;;;18.41;61.96;101034.22;2074596;28;47228;-50
2021/09/25 03:12:16;;;;;;;;;22.80;22.80;;;;;18.41;61.95;101028.84;2074639;28;47495;-52
2021/09/25 03:13:17;;;;;;;;;18.50;18.50;;;;;18.41;61.90;101036.91;2064513;28;48481;-52
2021/09/25 03:14:17;;;;;;;;;27.75;25.75;;;;;18.39;61.62;101028.94;2079083;28;48169;-52
2021/09/25 03:15:18;;;;;;;;;20.00;19.25;;;;;18.40;61.83;101035.16;2082665;28;47293;-50
2021/09/25 03:16:18;;;;;;;;;23.50;22.75;;;;;18.39;61.93;101033.44;2074556;28;47697;-52
2021/09/25 03:17:19;;;;;;;;;20.00;19.25;;;;;18.38;62.02;101035.25;2073476;28;47164;-51
2021/09/25 03:18:19;;;;;;;;;23.75;21.25;;;;;18.38;61.74;101042.44;2075312;28;47289;-52
2021/09/25 03:19:20;;;;;;;;;21.75;21.00;;;;;18.37;61.94;101036.19;2071585;28;48189;-48
2021/09/25 03:20:20;;;;;;;;;20.00;20.00;;;;;18.37;61.84;101038.88;2067401;28;46096;-48
2021/09/25 03:21:21;;;;;;;;;25.50;21.00;;;;;18.36;61.76;101044.34;2072945;28;48102;-47
2021/09/25 03:22:21;;;;;;;;;21.00;20.25;;;;;18.35;61.66;101035.41;2074196;28;45243;-49
2021/09/25 03:23:22;;;;;;;;;20.25;20.25;;;;;18.34;61.84;101039.03;2075623;28;47168;-49
2021/09/25 03:24:22;;;;;;;;;24.75;22.50;;;;;18.33;61.90;101034.63;2075008;28;47043;-47
2021/09/25 03:25:23;;;;;;;;;19.25;19.25;;;;;18.32;61.90;101038.25;2074843;28;47140;-48
2021/09/25 03:26:23;;;;;;;;;24.00;21.00;;;;;18.31;61.77;101028.44;2070880;28;45946;-50
2021/09/25 03:27:25;;;;;;;;;21.50;20.75;;;;;18.31;61.61;101032.94;2074134;28;47236;-51
2021/09/25 03:28:25;;;;;;;;;22.20;21.40;;;;;18.29;61.89;101035.69;2075106;28;48014;-49
2021/09/25 03:29:26;;;;;;;;;18.75;18.75;;;;;18.29;61.88;101029.44;2074938;28;47544;-49
2021/09/25 03:30:26;;;;;;;;;22.75;21.75;;;;;18.29;61.83;101032.13;2075101;28;46684;-50
2021/09/25 03:31:27;;;;;;;;;26.50;23.25;;;;;18.29;62.26;101030.31;2074919;28;46555;-50
2021/09/25 03:32:27;;;;;;;;;18.25;18.25;;;;;18.27;62.00;101028.66;2074406;28;45881;-48
2021/09/25 03:33:28;;;;;;;;;20.25;19.00;;;;;18.27;62.29;101028.66;2074328;28;47756;-45
2021/09/25 03:34:28;;;;;;;;;20.00;20.00;;;;;18.26;62.06;101026.91;2072874;28;46600;-48
2021/09/25 03:35:29;;;;;;;;;20.50;19.75;;;;;18.26;62.13;101029.59;2067523;28;46283;-51
2021/09/25 03:36:30;;;;;;;;;21.80;19.20;;;;;18.24;62.09;101025.19;2074376;28;47149;-48
2021/09/25 03:37:30;;;;;;;;;21.25;21.25;;;;;18.23;62.04;101026.13;2074204;28;47470;-50
2021/09/25 03:38:31;;;;;;;;;15.50;14.50;;;;;18.22;62.12;101023.50;2074192;28;47367;-50
2021/09/25 03:39:32;;;;;;;;;23.25;22.25;;;;;18.21;61.99;101027.16;2074085;28;48259;-49
2021/09/25 03:40:33;;;;;;;;;22.50;20.50;;;;;18.19;62.04;101026.34;2074813;28;48379;-47
2021/09/25 03:41:33;;;;;;;;;22.80;19.60;;;;;18.18;61.89;101024.63;2075002;28;48261;-48
2021/09/25 03:42:33;;;;;;;;;21.00;19.50;;;;;18.17;62.13;101021.06;2074840;28;47683;-50
2021/09/25 03:43:34;;;;;;;;;22.00;20.75;;;;;18.17;61.81;101025.56;2074893;28;45166;-48
2021/09/25 03:44:35;;;;;;;;;21.50;21.50;;;;;18.17;62.09;101025.56;2074428;28;47688;-47
2021/09/25 03:45:35;;;;;;;;;22.50;21.50;;;;;18.17;62.04;101023.75;2074248;28;47869;-47
2021/09/25 03:46:37;;;;;;;;;23.50;21.00;;;;;18.15;61.97;101020.25;2074909;28;47106;-47
2021/09/25 03:47:37;;;;;;;;;22.20;20.40;;;;;18.15;61.87;101022.94;2074199;28;48135;-50
2021/09/25 03:48:38;;;;;;;;;21.25;19.50;;;;;18.15;62.26;101022.06;2074091;28;48194;-47
2021/09/25 03:49:38;;;;;;;;;21.50;16.25;;;;;18.15;62.13;101017.56;2076016;28;47897;-50
2021/09/25 03:50:39;;;;;;;;;21.50;20.25;;;;;18.15;62.18;101017.56;2076835;28;47835;-48
2021/09/25 03:51:39;;;;;;;;;20.25;19.75;;;;;18.15;62.09;101012.19;2073032;28;46977;-46
2021/09/25 03:52:40;;;;;;;;;23.00;23.00;;;;;18.15;62.16;101014.00;2074922;28;47150;-49
2021/09/25 03:53:41;;;;;;;;;17.50;17.50;;;;;18.14;61.93;101015.81;2074583;28;46980;-47
2021/09/25 03:54:41;;;;;;;;;22.50;21.00;;;;;18.14;61.99;101021.19;2072439;28;47131;-49
2021/09/25 03:55:42;;;;;;;;;22.75;21.00;;;;;18.15;62.29;101019.38;2071775;28;46362;-49
2021/09/25 03:56:42;;;;;;;;;26.25;25.00;;;;;18.15;62.56;101016.69;2073148;28;45996;-48
2021/09/25 03:57:43;;;;;;;;;20.25;18.75;;;;;18.14;62.33;101018.50;2065495;28;48188;-47
2021/09/25 03:58:44;;;;;;;;;18.00;17.75;;;;;18.14;62.34;101017.63;2066149;28;45258;-49
2021/09/25 03:59:44;;;;;;;;;21.20;19.80;;;;;18.14;62.16;101017.63;2065712;28;48042;-47
2021/09/25 04:00:44;;;;;;;;;22.50;22.00;;;;;18.13;62.23;101015.88;2074232;28;48383;-50
2021/09/25 04:01:45;;;;;;;;;16.75;15.75;;;;;18.13;62.14;101019.44;2074630;28;47034;-51
2021/09/25 04:02:46;;;;;;;;;19.00;18.50;;;;;18.14;61.78;101017.63;2074755;28;46205;-47
2021/09/25 04:03:47;;;;;;;;;21.60;19.20;;;;;18.13;61.91;101022.13;2074004;28;46221;-50
2021/09/25 04:04:47;;;;;;;;;25.50;23.50;;;;;18.13;62.15;101024.81;2074293;28;46285;-49
2021/09/25 04:05:48;;;;;;;;;15.75;14.25;;;;;18.12;62.22;101017.72;2082038;28;47402;-49
2021/09/25 04:06:48;;;;;;;;;21.75;20.75;;;;;18.12;62.06;101019.53;2074374;28;46991;-49
2021/09/25 04:07:49;;;;;;;;;21.50;19.00;;;;;18.11;62.04;101015.09;2073676;28;47188;-47
2021/09/25 04:08:49;;;;;;;;;21.75;19.50;;;;;18.11;61.98;101021.34;2074296;28;47525;-45
2021/09/25 04:09:50;;;;;;;;;17.75;17.75;;;;;18.11;61.88;101018.66;2073812;28;46556;-47
2021/09/25 04:10:50;;;;;;;;;24.00;23.00;;;;;18.12;61.88;101016.84;2074049;28;48065;-48
2021/09/25 04:11:51;;;;;;;;;23.50;21.00;;;;;18.11;61.93;101024.03;2073920;28;46132;-48
2021/09/25 04:12:51;;;;;;;;;20.25;20.25;;;;;18.10;61.86;101019.59;2074568;28;47476;-47
2021/09/25 04:13:52;;;;;;;;;22.75;21.75;;;;;18.10;61.89;101027.66;2079911;28;47226;-47
2021/09/25 04:14:52;;;;;;;;;21.25;21.25;;;;;18.09;61.94;101022.38;2074793;28;46256;-47
2021/09/25 04:15:53;;;;;;;;;18.25;17.25;;;;;18.09;62.08;101022.38;2073818;28;47337;-47
2021/09/25 04:16:53;;;;;;;;;21.75;20.75;;;;;18.09;62.07;101025.06;2066012;28;47181;-47
2021/09/25 04:17:54;;;;;;;;;19.75;19.00;;;;;18.09;61.94;101019.69;2072410;28;48415;-51
2021/09/25 04:18:54;;;;;;;;;24.00;23.00;;;;;18.08;61.92;101017.94;2074738;28;48294;-45
2021/09/25 04:19:55;;;;;;;;;20.75;20.75;;;;;18.07;61.93;101019.75;2074475;28;47083;-47
2021/09/25 04:20:55;;;;;;;;;21.50;20.50;;;;;18.08;62.04;101029.56;2074689;28;47129;-47
2021/09/25 04:21:56;;;;;;;;;19.25;19.25;;;;;18.07;62.10;101022.44;2074492;28;48062;-52
2021/09/25 04:22:56;;;;;;;;;20.25;20.25;;;;;18.08;61.86;101028.69;2079974;28;44916;-49
2021/09/25 04:23:57;;;;;;;;;21.25;18.25;;;;;18.08;62.04;101026.00;2075998;28;46943;-50
2021/09/25 04:24:57;;;;;;;;;21.00;21.00;;;;;18.07;62.28;101025.13;2065899;28;47067;-51
2021/09/25 04:25:58;;;;;;;;;20.25;18.25;;;;;18.08;62.04;101028.69;2070842;28;47361;-46
2021/09/25 04:26:58;;;;;;;;;21.75;20.00;;;;;18.08;62.40;101024.19;2074626;28;48064;-48
2021/09/25 04:28:05;;;;;;;;;16.50;16.50;;;;;18.09;62.09;101025.06;2074685;28;47098;-49
2021/09/25 04:29:05;;;;;;;;;22.00;20.00;;;;;18.09;62.17;101020.53;2074362;28;47085;-50
2021/09/25 04:30:07;;;;;;;;;20.00;20.00;;;;;18.10;62.45;101024.09;2074823;28;47389;-48
2021/09/25 04:31:07;;;;;;;;;20.00;18.60;;;;;18.11;62.39;101023.16;2074561;28;48054;-48
2021/09/25 04:32:08;;;;;;;;;21.50;18.75;;;;;18.12;62.30;101019.53;2074776;28;48261;-50
2021/09/25 04:33:10;;;;;;;;;19.50;18.50;;;;;18.13;62.22;101013.22;2074469;28;46366;-46
2021/09/25 04:34:12;;;;;;;;;24.20;19.80;;;;;18.13;62.23;101008.69;2074683;28;47289;-46
2021/09/25 04:35:13;;;;;;;;;20.00;19.60;;;;;18.14;62.27;101009.56;2074326;28;47803;-48
2021/09/25 04:36:13;;;;;;;;;22.00;18.25;;;;;18.16;62.51;101010.38;2074744;28;47841;-49